Time;durP1;ratioP1;P1;durP2;ratioP2;P2;SDS_P1;SDS_P2;PMS_P1;PMS_P2;Temp;Humidity;BMP_temperature;BMP_pressure;BME280_temperature;BME280_humidity;BME280_pressure;Samples;Min_cycle;Max_cycle;Signal;HPM_P1;HPM_P2
2024/01/03 00:01:37;;;;;;;9.43;2.70;;;13.00;99.90;;;;;;5033395;28;20044;-80
2024/01/03 00:04:03;;;;;;;12.38;2.83;;;12.90;99.90;;;;;;5058562;28;20040;-80
2024/01/03 00:06:33;;;;;;;10.52;2.92;;;12.80;99.90;;;;;;5031966;28;20037;-78
2024/01/03 00:08:59;;;;;;;12.32;3.15;;;13.90;99.90;;;;;;5050312;28;20041;-78
2024/01/03 00:11:28;;;;;;;12.35;3.47;;;14.00;99.90;;;;;;5018546;28;20043;-77
2024/01/03 00:14:04;;;;;;;14.52;3.35;;;13.10;99.90;;;;;;5034286;28;20044;-75
2024/01/03 00:16:32;;;;;;;13.65;3.95;;;13.00;99.90;;;;;;5050756;28;20064;-76
2024/01/03 00:18:59;;;;;;;15.13;3.38;;;13.90;99.90;;;;;;5050858;28;20049;-80
2024/01/03 00:21:26;;;;;;;12.75;3.58;;;12.70;99.90;;;;;;5035004;28;20033;-82
2024/01/03 00:24:07;;;;;;;11.80;3.28;;;13.00;99.90;;;;;;5043179;28;20028;-78
2024/01/03 00:26:35;;;;;;;12.73;3.25;;;13.80;99.90;;;;;;5034234;28;20048;-81
2024/01/03 00:29:02;;;;;;;13.18;3.92;;;12.70;99.90;;;;;;5034450;28;20155;-78
2024/01/03 00:31:40;;;;;;;12.10;3.08;;;13.90;99.90;;;;;;5042546;28;20072;-75
2024/01/03 00:34:25;;;;;;;11.48;2.83;;;13.70;99.90;;;;;;5050806;28;20054;-80
2024/01/03 00:36:55;;;;;;;7.07;2.50;;;13.70;99.90;;;;;;5057602;28;20041;-82
2024/01/03 00:39:25;;;;;;;9.15;2.47;;;13.20;99.90;;;;;;5050249;28;20129;-74
2024/01/03 00:41:51;;;;;;;10.07;2.63;;;13.80;99.90;;;;;;5050861;28;20061;-75
2024/01/03 00:44:16;;;;;;;7.82;2.60;;;12.80;99.90;;;;;;5025771;28;20099;-77
2024/01/03 00:46:43;;;;;;;9.32;2.60;;;13.00;99.90;;;;;;5034537;28;20051;-78
2024/01/03 00:49:08;;;;;;;13.65;2.83;;;13.70;99.90;;;;;;5033814;28;20041;-78
2024/01/03 00:51:34;;;;;;;12.20;2.80;;;13.80;99.90;;;;;;5049753;28;20040;-79
2024/01/03 00:54:00;;;;;;;7.65;2.45;;;13.60;99.90;;;;;;5034340;28;20037;-76
2024/01/03 00:56:27;;;;;;;11.77;2.72;;;13.70;99.90;;;;;;5057540;28;20041;-79
2024/01/03 00:58:53;;;;;;;10.68;3.08;;;13.20;99.90;;;;;;5025688;28;20033;-80
2024/01/03 01:01:19;;;;;;;14.68;2.90;;;13.70;99.90;;;;;;5030856;28;20072;-76
2024/01/03 01:03:45;;;;;;;15.52;3.40;;;12.80;99.90;;;;;;5033830;28;20489;-79
2024/01/03 01:06:11;;;;;;;11.85;3.50;;;12.60;99.90;;;;;;5050117;28;20064;-75
2024/01/03 01:08:37;;;;;;;12.45;2.88;;;12.40;99.90;;;;;;5059077;28;20457;-81
2024/01/03 01:11:03;;;;;;;9.90;2.25;;;13.30;99.90;;;;;;5050010;28;20090;-78
2024/01/03 01:13:29;;;;;;;9.00;2.72;;;12.90;99.90;;;;;;5048472;28;20036;-78
2024/01/03 01:15:54;;;;;;;12.40;2.67;;;12.50;99.90;;;;;;5050032;28;20487;-75
2024/01/03 01:18:20;;;;;;;13.98;2.80;;;12.20;99.90;;;;;;5058186;28;20056;-80
2024/01/03 01:20:45;;;;;;;11.75;2.92;;;13.70;99.90;;;;;;5050226;28;20094;-81
2024/01/03 01:23:11;;;;;;;11.50;2.67;;;13.20;99.90;;;;;;5050295;28;20129;-75
2024/01/03 01:25:37;;;;;;;14.13;3.30;;;12.30;99.90;;;;;;5059775;28;20041;-77
2024/01/03 01:28:03;;;;;;;12.80;3.10;;;12.40;99.90;;;;;;5042022;28;20033;-81
2024/01/03 01:30:28;;;;;;;15.02;3.53;;;13.80;99.90;;;;;;5008982;28;20124;-77
2024/01/03 01:32:54;;;;;;;15.63;3.80;;;13.80;99.90;;;;;;5057168;28;20250;-76
2024/01/03 01:35:20;;;;;;;14.50;3.40;;;12.20;99.90;;;;;;5049832;28;20047;-78
2024/01/03 01:37:45;;;;;;;13.10;3.45;;;12.50;99.90;;;;;;4998920;28;20069;-76
2024/01/03 01:40:11;;;;;;;10.65;2.95;;;13.60;99.90;;;;;;5032161;28;20405;-77
2024/01/03 01:42:41;;;;;;;14.60;3.28;;;13.80;99.90;;;;;;5032526;28;20091;-77
2024/01/03 01:45:07;;;;;;;11.52;3.20;;;12.70;99.90;;;;;;5033277;28;20587;-74
2024/01/03 01:47:33;;;;;;;12.70;3.00;;;13.00;99.90;;;;;;5034805;28;20044;-78
2024/01/03 01:50:00;;;;;;;18.42;3.13;;;12.80;99.90;;;;;;5048161;28;20059;-75
2024/01/03 01:52:25;;;;;;;11.00;3.10;;;13.60;99.90;;;;;;5031485;28;20041;-76
2024/01/03 01:54:52;;;;;;;12.75;3.33;;;12.30;99.90;;;;;;5032830;28;20111;-81
2024/01/03 01:57:18;;;;;;;12.13;2.85;;;13.90;99.90;;;;;;5059010;28;20029;-79
2024/01/03 01:59:45;;;;;;;14.27;3.63;;;13.60;99.90;;;;;;5033176;28;20444;-75
2024/01/03 02:02:11;;;;;;;13.57;3.35;;;13.50;99.90;;;;;;5048391;28;20044;-76
2024/01/03 02:04:37;;;;;;;12.77;2.90;;;12.50;99.90;;;;;;5049214;28;20045;-80
2024/01/03 02:07:05;;;;;;;15.23;3.17;;;12.90;99.90;;;;;;5043265;28;20037;-76
2024/01/03 02:09:31;;;;;;;14.93;3.45;;;13.80;99.90;;;;;;5056727;28;20111;-79
2024/01/03 02:11:57;;;;;;;14.15;3.72;;;12.10;99.90;;;;;;5048988;28;20128;-79
2024/01/03 02:14:22;;;;;;;12.73;2.85;;;12.30;99.90;;;;;;5056666;28;20033;-77
2024/01/03 02:16:48;;;;;;;11.75;3.03;;;13.20;99.90;;;;;;5041241;28;20064;-74
2024/01/03 02:19:13;;;;;;;15.90;3.80;;;12.60;99.90;;;;;;5057386;28;20044;-78
2024/01/03 02:21:39;;;;;;;17.73;3.42;;;13.80;99.90;;;;;;5032744;28;20053;-77
2024/01/03 02:24:05;;;;;;;16.30;3.92;;;12.30;99.90;;;;;;5048878;28;20064;-76
2024/01/03 02:26:31;;;;;;;13.40;3.42;;;12.20;99.90;;;;;;5048728;28;20098;-81
2024/01/03 02:28:56;;;;;;;13.45;2.90;;;13.80;99.90;;;;;;5031336;28;20051;-79
2024/01/03 02:31:22;;;;;;;16.95;3.72;;;13.60;99.90;;;;;;5058399;28;20040;-76
2024/01/03 02:33:48;;;;;;;15.75;3.30;;;13.80;99.90;;;;;;5057288;28;20044;-79
2024/01/03 02:36:14;;;;;;;15.38;3.15;;;12.20;99.90;;;;;;5040593;28;20123;-78
2024/01/03 02:38:45;;;;;;;14.98;3.35;;;13.50;99.90;;;;;;5046477;28;20064;-74
2024/01/03 02:41:10;;;;;;;15.32;3.60;;;13.10;99.90;;;;;;5046318;28;20056;-75
2024/01/03 02:43:36;;;;;;;13.40;3.28;;;13.80;99.90;;;;;;5048612;28;20040;-76
2024/01/03 02:46:02;;;;;;;13.50;3.17;;;12.10;99.90;;;;;;5032366;28;20177;-76
2024/01/03 02:48:27;;;;;;;13.77;3.30;;;13.50;99.90;;;;;;5055584;28;20109;-78
2024/01/03 02:50:53;;;;;;;13.48;3.20;;;14.20;99.90;;;;;;5047544;28;20101;-79
2024/01/03 02:53:19;;;;;;;13.15;3.13;;;13.40;99.90;;;;;;5032268;28;20466;-79
2024/01/03 02:55:44;;;;;;;11.23;3.22;;;13.10;99.90;;;;;;5072207;28;20075;-77
2024/01/03 02:58:10;;;;;;;13.13;3.28;;;13.90;99.90;;;;;;5032490;28;20041;-77
2024/01/03 03:00:36;;;;;;;13.18;3.15;;;14.10;99.90;;;;;;5059527;28;20033;-76
2024/01/03 03:03:02;;;;;;;11.60;3.47;;;12.50;99.90;;;;;;5052902;28;20048;-76
2024/01/03 03:05:28;;;;;;;9.40;2.38;;;13.60;99.90;;;;;;5052778;28;20394;-77
2024/01/03 03:07:53;;;;;;;12.00;3.10;;;14.00;99.90;;;;;;5052621;28;20045;-75
2024/01/03 03:10:19;;;;;;;14.85;3.17;;;12.60;99.90;;;;;;5052007;28;20382;-72
2024/01/03 03:12:45;;;;;;;10.98;3.00;;;11.80;99.90;;;;;;5060362;28;20037;-74
2024/01/03 03:15:11;;;;;;;9.88;2.90;;;12.40;99.90;;;;;;5035909;28;20048;-75
2024/01/03 03:17:37;;;;;;;10.63;2.47;;;12.10;99.90;;;;;;5051886;28;20044;-74
2024/01/03 03:20:03;;;;;;;9.55;2.55;;;14.50;99.90;;;;;;5049116;28;20037;-76
2024/01/03 03:22:28;;;;;;;13.45;3.28;;;11.80;99.90;;;;;;5051940;28;20503;-73
2024/01/03 03:24:54;;;;;;;10.57;2.83;;;14.50;99.90;;;;;;5052086;28;20044;-76
2024/01/03 03:27:19;;;;;;;10.85;3.10;;;11.80;99.90;;;;;;5052083;28;20040;-72
2024/01/03 03:29:45;;;;;;;12.10;3.35;;;14.50;99.90;;;;;;5051202;28;20056;-72
2024/01/03 03:32:11;;;;;;;13.75;2.97;;;13.90;99.90;;;;;;5034972;28;20041;-76
2024/01/03 03:34:36;;;;;;;12.05;2.60;;;14.00;99.90;;;;;;5018938;28;20041;-75
2024/01/03 03:37:02;;;;;;;13.93;2.40;;;14.70;99.90;;;;;;5035619;28;20053;-74
2024/01/03 03:39:28;;;;;;;15.52;3.10;;;14.50;99.90;;;;;;5035510;28;20393;-74
2024/01/03 03:41:53;;;;;;;9.48;2.72;;;14.00;99.90;;;;;;5061640;28;20053;-77
2024/01/03 03:44:19;;;;;;;12.38;3.22;;;12.00;99.90;;;;;;5010366;28;20644;-75
2024/01/03 03:46:45;;;;;;;7.80;2.38;;;12.40;99.90;;;;;;5035385;28;20044;-77
2024/01/03 03:49:10;;;;;;;12.73;2.83;;;13.90;99.90;;;;;;5052531;28;20128;-76
2024/01/03 03:51:36;;;;;;;9.18;2.42;;;12.40;99.90;;;;;;5061973;28;20123;-74
2024/01/03 03:54:02;;;;;;;12.75;2.88;;;14.40;99.90;;;;;;5052207;28;20029;-77
2024/01/03 03:56:31;;;;;;;10.32;3.15;;;12.50;99.90;;;;;;5056756;28;20033;-73
2024/01/03 03:58:56;;;;;;;12.25;2.70;;;14.00;99.90;;;;;;5052309;28;20115;-76
2024/01/03 04:01:22;;;;;;;9.75;2.60;;;14.60;99.90;;;;;;5049350;28;20120;-77
2024/01/03 04:03:48;;;;;;;11.23;2.60;;;14.20;99.90;;;;;;5051520;28;20059;-77
2024/01/03 04:06:15;;;;;;;14.63;3.08;;;13.80;99.90;;;;;;5059957;28;20140;-75
2024/01/03 04:08:45;;;;;;;12.00;3.08;;;14.80;99.90;;;;;;5061287;28;20040;-75
2024/01/03 04:11:11;;;;;;;12.18;3.13;;;11.50;99.90;;;;;;5049554;28;20752;-76
2024/01/03 04:13:38;;;;;;;10.63;2.83;;;13.40;99.90;;;;;;5034717;28;20091;-78
2024/01/03 04:16:08;;;;;;;12.48;2.80;;;14.00;99.90;;;;;;5051765;28;20041;-75
2024/01/03 04:18:35;;;;;;;13.68;3.25;;;13.70;99.90;;;;;;5057515;28;20041;-76
2024/01/03 04:21:05;;;;;;;16.15;3.22;;;14.90;99.90;;;;;;5051702;28;20548;-75
2024/01/03 04:23:34;;;;;;;9.63;2.60;;;14.90;99.90;;;;;;5032529;28;20037;-73
2024/01/03 04:26:00;;;;;;;10.98;2.50;;;14.90;99.90;;;;;;5044270;28;20508;-76
2024/01/03 04:28:25;;;;;;;9.55;2.63;;;14.80;99.90;;;;;;5051430;28;20048;-76
2024/01/03 04:30:51;;;;;;;10.98;2.80;;;11.50;99.90;;;;;;5033860;28;20045;-74
2024/01/03 04:33:16;;;;;;;8.57;2.22;;;14.90;99.90;;;;;;5049071;28;20375;-74
2024/01/03 04:35:42;;;;;;;8.50;2.28;;;13.30;99.90;;;;;;5059184;28;20362;-75
2024/01/03 04:38:08;;;;;;;8.93;2.58;;;14.50;99.90;;;;;;5059618;28;20032;-76
2024/01/03 04:40:33;;;;;;;11.38;2.55;;;14.90;99.90;;;;;;5034427;28;20142;-75
2024/01/03 04:42:59;;;;;;;9.00;2.40;;;14.50;99.90;;;;;;5033296;28;20091;-77
2024/01/03 04:45:25;;;;;;;7.90;2.05;;;14.40;99.90;;;;;;5027300;28;20123;-75
2024/01/03 04:47:51;;;;;;;12.88;3.17;;;11.50;99.90;;;;;;5034138;28;20037;-75
2024/01/03 04:50:17;;;;;;;8.52;2.70;;;12.70;99.90;;;;;;5034139;28;20041;-74
2024/01/03 04:52:43;;;;;;;5.72;2.45;;;12.10;99.90;;;;;;5033610;28;20056;-76
2024/01/03 04:55:09;;;;;;;6.93;2.00;;;15.20;99.90;;;;;;5034348;28;20127;-74
2024/01/03 04:57:36;;;;;;;8.60;2.38;;;14.60;99.90;;;;;;5050755;28;20111;-76
2024/01/03 05:00:03;;;;;;;5.20;2.00;;;14.60;99.90;;;;;;5051031;28;20461;-74
2024/01/03 05:02:28;;;;;;;7.85;2.10;;;13.00;99.90;;;;;;5050764;28;20169;-74
2024/01/03 05:04:54;;;;;;;7.65;2.30;;;13.40;99.90;;;;;;5014682;28;20183;-76
2024/01/03 05:07:20;;;;;;;7.75;2.50;;;14.10;99.90;;;;;;5058501;28;20045;-73
2024/01/03 05:09:45;;;;;;;9.77;2.67;;;11.90;99.90;;;;;;5050752;28;20037;-74
2024/01/03 05:12:11;;;;;;;10.20;2.92;;;11.90;99.90;;;;;;5033850;28;20052;-74
2024/01/03 05:14:37;;;;;;;7.95;2.72;;;12.50;99.90;;;;;;5049162;28;20045;-74
2024/01/03 05:17:02;;;;;;;10.95;2.95;;;11.90;99.90;;;;;;5034386;28;20040;-74
2024/01/03 05:19:28;;;;;;;8.30;2.70;;;14.20;99.90;;;;;;5050840;28;20021;-77
2024/01/03 05:21:54;;;;;;;8.13;2.67;;;14.40;99.90;;;;;;5050229;28;20496;-74
2024/01/03 05:24:20;;;;;;;11.68;3.30;;;15.30;99.90;;;;;;5049081;28;20063;-74
2024/01/03 05:26:46;;;;;;;11.27;2.70;;;13.70;99.90;;;;;;5049452;28;20045;-73
2024/01/03 05:29:12;;;;;;;10.82;2.95;;;12.50;99.90;;;;;;5033127;28;20041;-72
2024/01/03 05:31:38;;;;;;;9.48;2.75;;;14.90;99.90;;;;;;5033178;28;20148;-75
2024/01/03 05:34:04;;;;;;;8.45;2.67;;;11.40;99.90;;;;;;5032270;28;20440;-72
2024/01/03 05:36:30;;;;;;;8.48;2.50;;;11.30;99.90;;;;;;5029542;28;20444;-74
2024/01/03 05:38:56;;;;;;;8.85;2.53;;;13.20;99.90;;;;;;5032630;28;20037;-77
2024/01/03 05:41:21;;;;;;;6.55;2.35;;;14.60;99.90;;;;;;5050008;28;20053;-76
2024/01/03 05:43:47;;;;;;;8.68;2.03;;;12.10;99.90;;;;;;5057625;28;20059;-77
2024/01/03 05:46:13;;;;;;;10.93;2.78;;;14.60;99.90;;;;;;5049192;28;20036;-76
2024/01/03 05:48:38;;;;;;;6.70;2.22;;;11.30;99.90;;;;;;5049518;28;20475;-73
2024/01/03 05:51:06;;;;;;;6.70;2.08;;;13.60;99.90;;;;;;5049799;28;20037;-75
2024/01/03 05:53:31;;;;;;;5.75;2.08;;;13.20;99.90;;;;;;5049774;28;20036;-76
2024/01/03 05:55:58;;;;;;;7.03;2.17;;;11.80;99.90;;;;;;5046048;28;20056;-76
2024/01/03 05:58:23;;;;;;;7.55;2.20;;;13.30;99.90;;;;;;5049263;28;20044;-74
2024/01/03 06:00:49;;;;;;;7.75;2.40;;;11.40;99.90;;;;;;5048971;28;20539;-75
2024/01/03 06:03:15;;;;;;;9.82;2.92;;;14.40;99.90;;;;;;5049772;28;20373;-77
2024/01/03 06:05:41;;;;;;;13.95;4.25;;;13.30;99.90;;;;;;5048981;28;20055;-74
2024/01/03 06:08:07;;;;;;;16.23;4.47;;;11.50;99.90;;;;;;5000593;28;20383;-73
2024/01/03 06:10:33;;;;;;;22.60;4.63;;;12.90;99.90;;;;;;5049462;28;20064;-76
2024/01/03 06:12:58;;;;;;;21.85;5.20;;;14.60;99.90;;;;;;5032968;28;20461;-74
2024/01/03 06:15:24;;;;;;;19.67;4.88;;;12.90;99.90;;;;;;5058678;28;20044;-79
2024/01/03 06:17:50;;;;;;;22.45;5.20;;;15.00;99.90;;;;;;5049214;28;20052;-80
2024/01/03 06:20:15;;;;;;;20.73;5.20;;;13.90;99.90;;;;;;5048970;28;20496;-75
2024/01/03 06:22:41;;;;;;;22.00;5.03;;;14.30;99.90;;;;;;5032477;28;20409;-77
2024/01/03 06:25:07;;;;;;;24.63;5.25;;;14.60;99.90;;;;;;5042942;28;20040;-77
2024/01/03 06:27:32;;;;;;;23.35;5.15;;;12.80;99.90;;;;;;5047347;28;20056;-75
2024/01/03 06:29:58;;;;;;;20.35;4.82;;;12.60;99.90;;;;;;5031978;28;20045;-75
2024/01/03 06:32:24;;;;;;;18.00;4.20;;;14.40;99.90;;;;;;5048936;28;20064;-79
2024/01/03 06:34:49;;;;;;;20.90;4.65;;;12.00;99.90;;;;;;5048115;28;20052;-76
2024/01/03 06:37:15;;;;;;;14.93;4.15;;;11.90;99.90;;;;;;5047446;28;20044;-72
2024/01/03 06:39:41;;;;;;;21.77;4.78;;;13.90;99.90;;;;;;5039334;28;20868;-76
2024/01/03 06:42:06;;;;;;;22.52;4.93;;;13.50;99.90;;;;;;5031188;28;20060;-76
2024/01/03 06:44:32;;;;;;;19.45;4.05;;;11.70;99.90;;;;;;5056130;28;20053;-76
2024/01/03 06:46:58;;;;;;;22.50;4.63;;;12.30;99.90;;;;;;5045665;28;20029;-74
2024/01/03 06:49:23;;;;;;;11.32;3.92;;;13.70;99.90;;;;;;5032609;28;20052;-75
2024/01/03 06:51:49;;;;;;;19.10;4.20;;;13.20;99.90;;;;;;5048570;28;20043;-74
2024/01/03 06:54:16;;;;;;;15.02;4.00;;;12.30;99.90;;;;;;5016193;28;20374;-78
2024/01/03 06:56:41;;;;;;;17.13;4.22;;;15.00;99.90;;;;;;5031964;28;20404;-77
2024/01/03 06:59:07;;;;;;;18.92;4.70;;;12.00;99.90;;;;;;5031141;28;20037;-77
2024/01/03 07:01:33;;;;;;;15.23;3.90;;;13.90;99.90;;;;;;5056304;28;20103;-73
2024/01/03 07:04:00;;;;;;;22.73;4.90;;;11.50;99.90;;;;;;5055526;28;20102;-78
2024/01/03 07:06:26;;;;;;;13.45;4.45;;;15.20;99.90;;;;;;5049042;28;20041;-76
2024/01/03 07:08:53;;;;;;;18.20;4.28;;;13.70;99.90;;;;;;5028467;28;20039;-76
2024/01/03 07:11:19;;;;;;;20.58;4.55;;;13.00;99.90;;;;;;5032610;28;20457;-75
2024/01/03 07:13:45;;;;;;;15.57;4.07;;;14.30;99.90;;;;;;5048237;28;20381;-75
2024/01/03 07:16:11;;;;;;;22.45;4.53;;;13.80;99.90;;;;;;5008034;28;20045;-79
2024/01/03 07:18:37;;;;;;;16.63;4.22;;;13.80;99.90;;;;;;5048267;28;20037;-76
2024/01/03 07:21:02;;;;;;;21.55;4.28;;;12.80;99.90;;;;;;4998490;28;20119;-76
2024/01/03 07:23:28;;;;;;;18.38;4.28;;;13.80;99.90;;;;;;5053907;28;20378;-78
2024/01/03 07:25:54;;;;;;;21.35;5.28;;;13.70;99.90;;;;;;5032367;28;20047;-73
2024/01/03 07:28:19;;;;;;;24.55;4.88;;;13.30;99.90;;;;;;5049499;28;20041;-78
2024/01/03 07:30:45;;;;;;;22.33;4.40;;;12.10;99.90;;;;;;5034410;28;20056;-74
2024/01/03 07:33:11;;;;;;;19.35;4.30;;;12.50;99.90;;;;;;5062616;28;20049;-77
2024/01/03 07:35:37;;;;;;;19.40;4.68;;;14.20;99.90;;;;;;5048702;28;20478;-73
2024/01/03 07:38:02;;;;;;;16.70;4.00;;;13.50;99.90;;;;;;5007243;28;20037;-76
2024/01/03 07:40:28;;;;;;;17.17;4.40;;;14.40;99.90;;;;;;5031171;28;20465;-75
2024/01/03 07:42:54;;;;;;;18.92;4.00;;;14.90;99.90;;;;;;5047875;28;20060;-80
2024/01/03 07:45:20;;;;;;;22.33;5.13;;;12.20;99.90;;;;;;5048085;28;20090;-76
2024/01/03 07:47:45;;;;;;;20.67;4.55;;;12.10;99.90;;;;;;5050787;28;20048;-74
2024/01/03 07:50:11;;;;;;;14.82;4.10;;;14.80;99.90;;;;;;5057682;28;20048;-74
2024/01/03 07:52:37;;;;;;;15.32;4.15;;;12.90;99.90;;;;;;5041644;28;20063;-79
2024/01/03 07:55:03;;;;;;;16.90;4.15;;;13.30;99.90;;;;;;5034471;28;20041;-74
2024/01/03 07:57:29;;;;;;;20.27;3.63;;;13.60;99.90;;;;;;5060300;28;20035;-75
2024/01/03 07:59:55;;;;;;;17.48;4.03;;;11.90;99.90;;;;;;5050187;28;20037;-74
2024/01/03 08:02:20;;;;;;;20.58;5.22;;;14.40;99.90;;;;;;5035287;28;20047;-78
2024/01/03 08:04:46;;;;;;;17.15;4.40;;;13.30;99.90;;;;;;5058901;28;20381;-75
2024/01/03 08:07:12;;;;;;;22.48;5.85;;;14.10;99.90;;;;;;5011498;28;20048;-76
2024/01/03 08:09:37;;;;;;;25.63;6.30;;;14.50;99.90;;;;;;5061123;28;20111;-79
2024/01/03 08:12:05;;;;;;;21.25;5.25;;;14.10;99.90;;;;;;5057674;28;20033;-76
2024/01/03 08:14:31;;;;;;;17.63;4.70;;;14.70;99.90;;;;;;5035199;28;20120;-76
2024/01/03 08:16:57;;;;;;;23.95;4.70;;;11.70;99.90;;;;;;5034619;28;20120;-77
2024/01/03 08:19:23;;;;;;;20.88;4.47;;;12.60;99.90;;;;;;5049745;28;20343;-81
2024/01/03 08:21:48;;;;;;;19.63;3.97;;;12.60;99.90;;;;;;5050239;28;20037;-75
2024/01/03 08:24:14;;;;;;;18.50;4.40;;;14.10;99.90;;;;;;5058024;28;20041;-77
2024/01/03 08:26:40;;;;;;;20.17;4.43;;;13.70;99.90;;;;;;5051466;28;20435;-77
2024/01/03 08:29:05;;;;;;;20.55;5.00;;;12.50;99.90;;;;;;5050055;28;20036;-76
2024/01/03 08:31:32;;;;;;;21.02;4.25;;;12.20;99.90;;;;;;5061195;28;20052;-80
2024/01/03 08:33:58;;;;;;;19.10;3.72;;;13.70;99.90;;;;;;5051156;28;20087;-78
2024/01/03 08:36:41;;;;;;;17.65;3.65;;;12.40;99.90;;;;;;5051034;28;20037;-77
2024/01/03 08:39:08;;;;;;;16.63;4.07;;;11.70;99.90;;;;;;5048285;28;20040;-74
2024/01/03 08:41:34;;;;;;;16.27;3.80;;;13.20;99.90;;;;;;5059293;28;20502;-75
2024/01/03 08:44:02;;;;;;;15.68;3.35;;;13.90;99.90;;;;;;5048342;28;20069;-72
2024/01/03 08:46:32;;;;;;;13.20;3.50;;;14.30;99.90;;;;;;5050703;28;20047;-74
2024/01/03 08:48:58;;;;;;;15.85;3.83;;;14.90;99.90;;;;;;5026395;28;20071;-76
2024/01/03 08:51:24;;;;;;;15.55;3.35;;;11.70;99.90;;;;;;5057048;28;20068;-76
2024/01/03 08:53:53;;;;;;;16.55;3.78;;;13.50;99.90;;;;;;5042072;28;20086;-74
2024/01/03 08:56:19;;;;;;;14.25;3.63;;;13.60;99.90;;;;;;5058006;28;20049;-73
2024/01/03 08:58:45;;;;;;;14.73;3.42;;;14.70;99.90;;;;;;5062091;28;20405;-77
2024/01/03 09:01:19;;;;;;;11.88;3.22;;;12.80;99.90;;;;;;5049624;28;20072;-72
2024/01/03 09:03:46;;;;;;;15.50;3.15;;;14.20;99.90;;;;;;5033410;28;20040;-76
2024/01/03 09:06:14;;;;;;;15.77;3.50;;;11.60;99.90;;;;;;5050496;28;20040;-75
2024/01/03 09:08:40;;;;;;;20.20;4.22;;;14.20;99.90;;;;;;5050376;28;20523;-78
2024/01/03 09:11:13;;;;;;;13.85;3.75;;;14.30;99.90;;;;;;5047431;28;20534;-77
2024/01/03 09:13:39;;;;;;;18.30;4.22;;;12.20;99.90;;;;;;5050896;28;20044;-75
2024/01/03 09:16:10;;;;;;;16.67;4.35;;;14.60;99.90;;;;;;5057002;28;20030;-78
2024/01/03 09:18:36;;;;;;;15.48;4.57;;;12.10;99.90;;;;;;5050880;28;20053;-73
2024/01/03 09:21:03;;;;;;;17.38;3.75;;;11.70;99.90;;;;;;5050175;28;20029;-76
2024/01/03 09:23:30;;;;;;;17.48;3.80;;;12.90;99.90;;;;;;5080748;28;20041;-76
2024/01/03 09:25:55;;;;;;;13.45;3.58;;;12.30;99.90;;;;;;5051188;28;20133;-76
2024/01/03 09:28:23;;;;;;;14.27;3.53;;;12.80;99.90;;;;;;5033471;28;20128;-69
2024/01/03 09:30:49;;;;;;;15.93;3.97;;;15.00;99.90;;;;;;5032790;28;20033;-71
2024/01/03 09:33:14;;;;;;;14.57;3.80;;;11.60;99.90;;;;;;5048002;28;20481;-76
2024/01/03 09:35:40;;;;;;;14.20;4.10;;;14.40;99.90;;;;;;5048687;28;20076;-73
2024/01/03 09:38:06;;;;;;;11.60;3.65;;;12.10;99.90;;;;;;5064358;28;20041;-77
2024/01/03 09:40:33;;;;;;;10.15;2.92;;;14.60;99.90;;;;;;5014796;28;20070;-76
2024/01/03 09:43:03;;;;;;;14.50;3.55;;;13.40;99.90;;;;;;5013853;28;20057;-74
2024/01/03 09:45:30;;;;;;;10.55;3.50;;;15.20;99.90;;;;;;5043113;28;20059;-75
2024/01/03 09:47:57;;;;;;;13.80;3.15;;;12.50;99.90;;;;;;5049089;28;20049;-78
2024/01/03 09:50:22;;;;;;;12.75;3.75;;;14.50;99.90;;;;;;5055528;28;20639;-75
2024/01/03 09:52:48;;;;;;;17.98;3.88;;;11.90;99.90;;;;;;5045786;28;20041;-78
2024/01/03 09:55:15;;;;;;;20.15;4.40;;;13.30;99.90;;;;;;5050048;28;20041;-75
2024/01/03 09:57:43;;;;;;;17.40;3.72;;;15.20;99.90;;;;;;5065816;28;20102;-77
2024/01/03 10:00:08;;;;;;;15.55;3.42;;;12.20;99.90;;;;;;5048975;28;20040;-78
2024/01/03 10:02:37;;;;;;;15.25;3.53;;;12.00;99.90;;;;;;5048877;28;20064;-76
2024/01/03 10:05:06;;;;;;;12.13;3.00;;;14.90;99.90;;;;;;5049580;28;20359;-78
2024/01/03 10:07:33;;;;;;;9.60;2.50;;;11.90;99.90;;;;;;5056712;28;20076;-83
2024/01/03 10:09:59;;;;;;;11.15;2.50;;;12.00;99.90;;;;;;5016933;28;20409;-79
2024/01/03 10:12:28;;;;;;;10.07;2.63;;;12.30;99.90;;;;;;5031628;28;20041;-82
2024/01/03 10:14:54;;;;;;;8.38;2.30;;;11.70;99.90;;;;;;5047444;28;20041;-80
2024/01/03 10:17:21;;;;;;;8.02;2.15;;;11.80;99.90;;;;;;5037952;28;20029;-79
2024/01/03 10:19:47;;;;;;;10.65;2.88;;;15.10;99.90;;;;;;5059588;28;20123;-80
2024/01/03 10:22:18;;;;;;;10.38;2.47;;;11.60;99.90;;;;;;5032089;28;20116;-80
2024/01/03 10:24:45;;;;;;;15.40;2.78;;;13.30;99.90;;;;;;5047124;28;20033;-80
2024/01/03 10:27:11;;;;;;;12.82;2.75;;;11.90;99.90;;;;;;5007267;28;20492;-80
2024/01/03 10:29:37;;;;;;;12.27;3.00;;;11.70;99.90;;;;;;5050730;28;20040;-79
2024/01/03 10:32:05;;;;;;;15.30;3.55;;;13.60;99.90;;;;;;5049379;28;20071;-80
2024/01/03 10:34:31;;;;;;;10.68;3.00;;;13.20;99.90;;;;;;5048103;28;20044;-83
2024/01/03 10:36:59;;;;;;;12.82;2.70;;;15.30;99.90;;;;;;5072335;28;20037;-81
2024/01/03 10:39:28;;;;;;;13.40;3.17;;;15.60;99.90;;;;;;5048451;28;20060;-82
2024/01/03 10:41:54;;;;;;;10.18;3.30;;;15.60;99.90;;;;;;5059190;28;20132;-79
2024/01/03 10:44:21;;;;;;;10.27;2.65;;;12.40;99.90;;;;;;5057196;28;20117;-82
2024/01/03 10:46:48;;;;;;;8.93;2.90;;;11.70;99.90;;;;;;5039606;28;20049;-83
2024/01/03 10:49:17;;;;;;;16.17;2.90;;;15.10;99.90;;;;;;5048959;28;20435;-83
2024/01/03 10:51:44;;;;;;;9.68;2.50;;;12.20;99.90;;;;;;5041177;28;20041;-83
2024/01/03 10:54:15;;;;;;;13.48;2.92;;;15.30;99.90;;;;;;5040622;28;20421;-81
2024/01/03 10:56:53;;;;;;;11.98;2.47;;;12.50;99.90;;;;;;5048794;28;20037;-79
2024/01/03 10:59:27;;;;;;;12.52;3.40;;;13.70;99.90;;;;;;5014352;28;20112;-81
2024/01/03 11:02:14;;;;;;;12.52;2.78;;;12.70;99.90;;;;;;5032789;28;20031;-80
2024/01/03 11:05:07;;;;;;;11.30;2.80;;;12.20;99.90;;;;;;5028970;28;20048;-77
2024/01/03 11:07:42;;;;;;;11.57;2.60;;;12.20;99.90;;;;;;5032539;28;20047;-74
2024/01/03 11:10:09;;;;;;;13.52;2.63;;;12.70;99.90;;;;;;5065470;28;20029;-77
2024/01/03 11:12:34;;;;;;;12.32;3.13;;;15.20;99.90;;;;;;5015613;28;20174;-79
2024/01/03 11:15:23;;;;;;;13.70;2.88;;;15.00;99.90;;;;;;5029451;28;20060;-80
2024/01/03 11:17:54;;;;;;;12.40;3.10;;;15.00;99.90;;;;;;5030072;28;20047;-80
2024/01/03 11:20:29;;;;;;;12.13;3.10;;;16.80;99.90;;;;;;5040279;28;20037;-78
2024/01/03 11:22:57;;;;;;;12.13;3.05;;;17.10;99.90;;;;;;5031361;28;20040;-75
2024/01/03 11:25:51;;;;;;;11.07;2.80;;;13.90;1.00;;;;;;5033050;28;20389;-79
2024/01/03 11:28:33;;;;;;;12.73;3.05;;;16.20;9.80;;;;;;5051378;28;20045;-75
2024/01/03 11:31:03;;;;;;;12.82;3.05;;;15.60;25.10;;;;;;5050840;28;20515;-77
2024/01/03 11:33:43;;;;;;;12.07;3.05;;;12.80;13.60;;;;;;5035989;28;20041;-78
2024/01/03 11:36:09;;;;;;;11.02;3.08;;;15.10;90.60;;;;;;5048299;28;20047;-75
2024/01/03 11:38:42;;;;;;;15.57;4.05;;;12.00;99.90;;;;;;5034837;28;20033;-78
2024/01/03 11:41:14;;;;;;;17.50;3.47;;;15.10;99.90;;;;;;5051322;28;20049;-74
2024/01/03 11:43:39;;;;;;;17.55;3.60;;;13.40;99.50;;;;;;5041006;28;20132;-78
2024/01/03 11:46:12;;;;;;;12.68;2.88;;;17.10;99.90;;;;;;5050673;28;20120;-80
2024/01/03 11:48:38;;;;;;;17.75;3.75;;;15.30;81.90;;;;;;5049863;28;20377;-78
2024/01/03 11:51:25;;;;;;;14.55;3.33;;;13.40;30.00;;;;;;5051538;28;20551;-80
2024/01/03 11:53:52;;;;;;;13.80;2.63;;;13.30;1.00;;;;;;5034224;28;20036;-75
2024/01/03 11:56:28;;;;;;;13.85;3.53;;;14.50;1.00;;;;;;5050043;28;20401;-74
2024/01/03 11:58:55;;;;;;;12.32;3.30;;;17.20;41.40;;;;;;5050819;28;20040;-73
2024/01/03 12:01:20;;;;;;;11.27;3.28;;;15.90;99.90;;;;;;5076680;28;20091;-79
2024/01/03 12:03:51;;;;;;;12.45;2.70;;;13.70;77.00;;;;;;5060563;28;20662;-76
2024/01/03 12:06:21;;;;;;;17.13;3.88;;;14.00;99.90;;;;;;5049544;28;20076;-78
2024/01/03 12:08:47;;;;;;;12.95;3.08;;;15.60;99.90;;;;;;5060021;28;20129;-78
2024/01/03 12:11:14;;;;;;;14.98;3.22;;;12.30;94.40;;;;;;5034057;28;20130;-77
2024/01/03 12:13:39;;;;;;;13.43;3.28;;;12.10;99.90;;;;;;5033826;28;20110;-75
2024/01/03 12:16:05;;;;;;;16.52;3.83;;;15.80;99.90;;;;;;5033900;28;20048;-75
2024/01/03 12:18:32;;;;;;;15.95;3.83;;;12.00;99.90;;;;;;5049482;28;20424;-77
2024/01/03 12:21:10;;;;;;;15.50;3.75;;;12.10;99.90;;;;;;5060287;28;20040;-75
2024/01/03 12:23:35;;;;;;;15.43;3.65;;;14.70;99.90;;;;;;5048192;28;20123;-79
2024/01/03 12:26:09;;;;;;;14.85;3.55;;;13.30;99.90;;;;;;5050016;28;20436;-78
2024/01/03 12:28:35;;;;;;;14.07;3.50;;;14.60;99.90;;;;;;5047718;28;20051;-77
2024/01/03 12:31:01;;;;;;;20.80;4.20;;;16.00;99.90;;;;;;5050809;28;20397;-77
2024/01/03 12:33:26;;;;;;;15.02;3.58;;;15.40;99.90;;;;;;5056685;28;20037;-77
2024/01/03 12:35:53;;;;;;;16.60;3.78;;;12.50;99.90;;;;;;5043436;28;20404;-78
2024/01/03 12:38:22;;;;;;;14.55;3.78;;;15.30;99.90;;;;;;5030776;28;20036;-76